createdAt,value
2022-12-28T00:01:49.179Z,7.35
2022-12-28T00:04:16.448Z,4.53
2022-12-28T00:06:43.705Z,7.10
2022-12-28T00:09:12.179Z,5.93
2022-12-28T00:11:39.443Z,6.90
2022-12-28T00:14:06.683Z,7.20
2022-12-28T00:16:35.489Z,7.03
2022-12-28T00:19:04.999Z,7.68
2022-12-28T00:21:32.415Z,4.60
2022-12-28T00:24:00.192Z,4.72
2022-12-28T00:26:28.710Z,4.35
2022-12-28T00:29:03.760Z,7.00
2022-12-28T00:31:33.198Z,5.53
2022-12-28T00:34:00.628Z,5.03
2022-12-28T00:37:10.587Z,4.38
2022-12-28T00:39:14.961Z,3.25
2022-12-28T00:41:42.202Z,7.93
2022-12-28T00:44:09.457Z,6.95
2022-12-28T00:46:36.649Z,4.10
2022-12-28T00:49:03.969Z,6.05
2022-12-28T00:51:31.180Z,5.47
2022-12-28T00:53:58.511Z,4.07
2022-12-28T00:56:25.695Z,6.13
2022-12-28T00:58:57.517Z,3.75
2022-12-28T01:01:24.885Z,5.03
2022-12-28T01:03:52.273Z,3.53
2022-12-28T01:06:19.765Z,3.90
2022-12-28T01:08:47.118Z,4.28
2022-12-28T01:11:25.193Z,6.03
2022-12-28T01:13:55.036Z,4.53
2022-12-28T01:16:27.432Z,3.42
2022-12-28T01:18:59.103Z,5.25
2022-12-28T01:21:28.000Z,3.13
2022-12-28T01:23:56.815Z,4.15
2022-12-28T01:26:24.696Z,3.45
2022-12-28T01:28:51.930Z,2.65
2022-12-28T01:31:19.658Z,3.60
2022-12-28T01:33:47.107Z,3.63
2022-12-28T01:36:16.884Z,4.13
2022-12-28T01:38:44.547Z,5.93
2022-12-28T01:41:14.041Z,6.47
2022-12-28T01:43:53.466Z,3.80
2022-12-28T01:46:49.857Z,4.18
2022-12-28T01:49:21.309Z,3.50
2022-12-28T01:52:02.077Z,5.72
2022-12-28T01:54:30.895Z,3.42
2022-12-28T01:56:58.153Z,5.43
2022-12-28T01:59:27.422Z,3.35
2022-12-28T02:01:54.706Z,3.45
2022-12-28T02:04:24.928Z,4.13
2022-12-28T02:06:52.426Z,5.38
2022-12-28T02:09:41.414Z,4.22
2022-12-28T02:12:09.005Z,3.83
2022-12-28T02:14:36.248Z,3.47
2022-12-28T02:17:03.499Z,3.42
2022-12-28T02:19:41.108Z,2.50
2022-12-28T02:22:20.559Z,2.92
2022-12-28T02:25:12.896Z,3.15
2022-12-28T02:28:00.894Z,3.10
2022-12-28T02:30:28.141Z,2.97
2022-12-28T02:33:13.325Z,2.10
2022-12-28T02:36:01.465Z,2.97
2022-12-28T02:38:30.988Z,2.95
2022-12-28T02:41:10.133Z,3.97
2022-12-28T02:43:38.752Z,3.35
2022-12-28T02:46:51.307Z,2.13
2022-12-28T02:49:41.249Z,2.13
2022-12-28T02:52:31.884Z,6.53
2022-12-28T02:55:55.823Z,4.90
2022-12-28T02:58:41.119Z,4.15
2022-12-28T03:01:20.731Z,2.15
2022-12-28T03:03:57.057Z,2.10
2022-12-28T03:06:50.154Z,2.15
2022-12-28T03:09:36.588Z,2.25
2022-12-28T03:12:10.219Z,2.55
2022-12-28T03:14:43.735Z,2.30
2022-12-28T03:17:46.127Z,2.40
2022-12-28T03:20:35.431Z,4.03
2022-12-28T03:23:21.501Z,3.67
2022-12-28T03:26:07.377Z,2.30
2022-12-28T03:28:58.842Z,2.47
2022-12-28T03:31:26.192Z,2.20
2022-12-28T03:34:09.445Z,2.53
2022-12-28T03:36:59.473Z,2.10
2022-12-28T03:40:23.325Z,2.67
2022-12-28T03:43:10.119Z,3.13
2022-12-28T03:45:51.328Z,2.15
2022-12-28T03:48:20.645Z,2.42
2022-12-28T03:50:48.961Z,2.67
2022-12-28T03:53:18.612Z,3.22
2022-12-28T03:55:46.063Z,2.72
2022-12-28T03:58:15.311Z,4.47
2022-12-28T04:00:42.549Z,2.22
2022-12-28T04:03:09.910Z,3.05
2022-12-28T04:05:37.331Z,2.75
2022-12-28T04:08:04.718Z,2.50
2022-12-28T04:10:31.947Z,2.67
2022-12-28T04:12:59.199Z,3.40
2022-12-28T04:15:59.731Z,2.03
2022-12-28T04:18:28.325Z,2.88
2022-12-28T04:20:55.607Z,3.45
2022-12-28T04:23:23.036Z,2.47
2022-12-28T04:26:01.136Z,2.15
2022-12-28T04:28:28.641Z,2.97
2022-12-28T04:31:21.861Z,3.05
2022-12-28T04:34:03.093Z,1.98
2022-12-28T04:36:33.908Z,2.03
2022-12-28T04:39:02.435Z,1.80
2022-12-28T04:41:29.632Z,1.80
2022-12-28T04:43:57.232Z,1.80
2022-12-28T04:46:24.979Z,1.92
2022-12-28T04:48:52.427Z,2.25
2022-12-28T04:51:24.656Z,3.83
2022-12-28T04:53:52.284Z,1.92
2022-12-28T04:56:20.057Z,2.90
2022-12-28T04:58:47.369Z,3.13
2022-12-28T05:01:16.985Z,1.70
2022-12-28T05:03:49.524Z,2.17
2022-12-28T05:06:22.210Z,2.20
2022-12-28T05:08:49.538Z,1.80
2022-12-28T05:11:21.332Z,1.80
2022-12-28T05:13:48.648Z,1.92
2022-12-28T05:16:17.961Z,3.17
2022-12-28T05:18:45.393Z,1.77
2022-12-28T05:21:17.622Z,2.53
2022-12-28T05:23:44.827Z,3.47
2022-12-28T05:26:13.698Z,2.50
2022-12-28T05:28:40.935Z,2.25
2022-12-28T05:31:10.410Z,2.22
2022-12-28T05:33:37.782Z,2.10
2022-12-28T05:36:09.726Z,2.90
2022-12-28T05:38:37.010Z,1.83
2022-12-28T05:41:08.490Z,2.80
2022-12-28T05:43:35.824Z,1.90
2022-12-28T05:46:04.963Z,2.65
2022-12-28T05:48:33.328Z,3.13
2022-12-28T05:51:05.228Z,1.80
2022-12-28T05:53:32.643Z,2.15
2022-12-28T05:56:05.680Z,3.45
2022-12-28T06:01:09.132Z,3.08
2022-12-28T06:03:36.765Z,2.13
2022-12-28T06:06:09.360Z,2.22
2022-12-28T06:08:36.961Z,5.80
2022-12-28T06:11:05.310Z,3.20
2022-12-28T06:13:32.624Z,2.08
2022-12-28T06:16:04.809Z,2.85
2022-12-28T06:18:32.008Z,2.80
2022-12-28T06:21:16.063Z,2.72
2022-12-28T06:23:43.425Z,2.60
2022-12-28T06:26:15.001Z,3.20
2022-12-28T06:28:42.386Z,2.10
2022-12-28T06:31:23.337Z,2.35
2022-12-28T06:33:53.922Z,2.20
2022-12-28T06:36:22.441Z,2.08
2022-12-28T06:38:49.970Z,3.53
2022-12-28T06:41:18.106Z,2.35
2022-12-28T06:43:45.413Z,2.08
2022-12-28T06:46:13.392Z,2.70
2022-12-28T06:48:41.159Z,2.88
2022-12-28T06:51:12.139Z,3.63
2022-12-28T06:53:39.418Z,2.17
2022-12-28T06:56:17.620Z,1.67
2022-12-28T06:58:45.326Z,2.28
2022-12-28T07:01:15.317Z,3.92
2022-12-28T07:03:43.298Z,1.73
2022-12-28T07:06:10.793Z,2.10
2022-12-28T07:08:37.993Z,2.08
2022-12-28T07:11:06.375Z,2.70
2022-12-28T07:13:33.983Z,2.13
2022-12-28T07:16:09.859Z,2.50
2022-12-28T07:18:37.891Z,2.35
2022-12-28T07:21:07.437Z,2.17
2022-12-28T07:23:34.760Z,2.97
2022-12-28T07:26:12.821Z,3.42
2022-12-28T07:28:41.019Z,1.67
2022-12-28T07:31:09.736Z,1.73
2022-12-28T07:33:37.276Z,2.78
2022-12-28T07:36:05.560Z,2.20
2022-12-28T07:38:33.339Z,3.75
2022-12-28T07:41:07.566Z,2.05
2022-12-28T07:43:35.098Z,2.97
2022-12-28T07:46:02.919Z,1.80
2022-12-28T07:48:33.977Z,2.92
2022-12-28T07:51:08.363Z,2.97
2022-12-28T07:53:35.623Z,4.63
2022-12-28T07:56:02.933Z,1.88
2022-12-28T07:58:30.132Z,2.38
2022-12-28T08:01:05.392Z,4.38
2022-12-28T08:03:33.637Z,4.85
2022-12-28T08:06:10.232Z,4.30
2022-12-28T08:08:38.834Z,2.63
2022-12-28T08:11:07.236Z,2.67
2022-12-28T08:13:35.624Z,2.58
2022-12-28T08:16:02.970Z,4.18
2022-12-28T08:18:30.315Z,2.78
2022-12-28T08:21:05.230Z,2.00
2022-12-28T08:23:32.486Z,2.05
2022-12-28T08:26:13.817Z,4.10
2022-12-28T08:28:41.624Z,2.75
2022-12-28T08:31:11.477Z,3.17
2022-12-28T08:33:38.757Z,2.03
2022-12-28T08:36:06.609Z,4.85
2022-12-28T08:38:33.838Z,2.67
2022-12-28T08:41:02.065Z,3.25
2022-12-28T08:43:29.689Z,4.20
2022-12-28T08:46:00.481Z,2.25
2022-12-28T08:48:28.104Z,2.90
2022-12-28T08:50:55.459Z,4.97
2022-12-28T08:53:25.474Z,5.18
2022-12-28T08:55:52.660Z,3.50
2022-12-28T08:58:19.838Z,3.90
2022-12-28T09:00:47.127Z,2.17
2022-12-28T09:03:14.367Z,2.88
2022-12-28T09:05:41.758Z,3.15
2022-12-28T09:08:09.016Z,2.08
2022-12-28T09:10:36.204Z,1.70
2022-12-28T09:13:03.436Z,4.07
2022-12-28T09:15:30.646Z,1.60
2022-12-28T09:17:57.825Z,2.42
2022-12-28T09:20:25.021Z,3.05
2022-12-28T09:22:52.245Z,2.20
2022-12-28T09:25:19.487Z,2.00
2022-12-28T09:27:49.229Z,4.13
2022-12-28T09:30:17.831Z,2.40
2022-12-28T09:33:05.013Z,2.28
2022-12-28T09:35:32.301Z,5.55
2022-12-28T09:38:01.815Z,3.95
2022-12-28T09:40:29.009Z,5.60
2022-12-28T09:42:56.178Z,2.92
2022-12-28T09:45:23.415Z,2.72
2022-12-28T09:47:52.421Z,6.38
2022-12-28T09:50:19.624Z,2.40
2022-12-28T09:52:57.659Z,3.33
2022-12-28T09:55:24.853Z,2.30
2022-12-28T09:57:56.011Z,1.50
2022-12-28T10:00:46.447Z,2.92
2022-12-28T10:03:24.971Z,3.97
2022-12-28T10:05:52.480Z,1.30
2022-12-28T10:08:21.167Z,1.90
2022-12-28T10:10:49.507Z,3.70
2022-12-28T10:16:18.700Z,1.30
2022-12-28T10:18:46.380Z,1.60
2022-12-28T10:21:13.963Z,1.63
2022-12-28T10:24:12.097Z,2.90
2022-12-28T10:26:28.661Z,5.70
2022-12-28T10:28:59.653Z,6.53
2022-12-28T10:31:32.149Z,1.88
2022-12-28T10:33:59.459Z,4.38
2022-12-28T10:36:31.608Z,4.40
2022-12-28T10:38:59.060Z,2.25
2022-12-28T10:41:38.604Z,1.83
2022-12-28T10:44:40.607Z,3.47
2022-12-28T10:47:27.912Z,1.65
2022-12-28T10:50:18.877Z,2.70
2022-12-28T10:52:42.260Z,1.05
2022-12-28T10:55:30.374Z,6.13
2022-12-28T11:01:13.216Z,1.33
2022-12-28T11:03:22.025Z,2.42
2022-12-28T11:03:56.644Z,1.73
2022-12-28T11:06:32.280Z,2.60
2022-12-28T11:09:17.599Z,4.00
2022-12-28T11:11:46.092Z,0.90
2022-12-28T11:14:13.318Z,2.05
2022-12-28T11:16:40.799Z,1.45
2022-12-28T11:19:08.044Z,2.30
2022-12-28T11:21:36.022Z,4.50
2022-12-28T11:24:03.507Z,1.45
2022-12-28T11:26:31.534Z,2.05
2022-12-28T11:28:58.951Z,1.77
2022-12-28T11:31:32.590Z,2.35
2022-12-28T11:34:03.450Z,2.78
2022-12-28T11:36:31.260Z,1.30
2022-12-28T11:38:58.591Z,2.90
2022-12-28T11:41:31.958Z,4.05
2022-12-28T11:44:02.896Z,1.42
2022-12-28T11:46:30.129Z,4.38
2022-12-28T11:49:00.683Z,2.45
2022-12-28T11:51:31.131Z,3.58
2022-12-28T11:54:05.262Z,2.17
2022-12-28T11:56:44.799Z,3.08
2022-12-28T11:59:27.051Z,2.90
2022-12-28T12:02:01.732Z,2.78
2022-12-28T12:07:07.632Z,9.13
2022-12-28T12:09:38.373Z,4.32
2022-12-28T12:12:18.076Z,3.33
2022-12-28T12:15:01.997Z,2.05
2022-12-28T12:17:50.181Z,3.55
2022-12-28T12:20:43.763Z,2.47
2022-12-28T12:23:32.656Z,1.30
2022-12-28T12:26:40.322Z,3.15
2022-12-28T12:29:15.896Z,2.70
2022-12-28T12:31:48.391Z,1.98
2022-12-28T12:34:19.691Z,3.67
2022-12-28T12:37:14.381Z,2.53
2022-12-28T12:39:53.469Z,2.13
2022-12-28T12:42:27.063Z,3.35
2022-12-28T12:45:32.729Z,2.38
2022-12-28T12:48:18.072Z,1.65
2022-12-28T12:51:07.029Z,1.27
2022-12-28T12:53:48.875Z,3.33
2022-12-28T12:56:49.004Z,1.40
2022-12-28T12:59:21.765Z,2.17
2022-12-28T13:02:16.991Z,2.75
2022-12-28T13:04:47.144Z,1.95
2022-12-28T13:07:24.599Z,2.70
2022-12-28T13:09:52.846Z,6.07
2022-12-28T13:12:20.045Z,1.48
2022-12-28T13:14:48.983Z,1.88
2022-12-28T13:17:21.447Z,2.92
2022-12-28T13:19:48.717Z,1.50
2022-12-28T13:22:32.037Z,1.85
2022-12-28T13:24:59.476Z,2.95
2022-12-28T13:27:44.520Z,4.20
2022-12-28T13:30:18.996Z,1.85
2022-12-28T13:32:54.184Z,2.78
2022-12-28T13:35:26.061Z,2.03
2022-12-28T13:38:00.362Z,1.85
2022-12-28T13:40:27.562Z,1.38
2022-12-28T13:43:17.771Z,2.67
2022-12-28T13:45:49.343Z,3.25
2022-12-28T13:48:18.558Z,3.42
2022-12-28T13:50:46.098Z,2.13
2022-12-28T13:53:17.520Z,2.25
2022-12-28T13:55:46.024Z,4.10
2022-12-28T13:58:16.108Z,3.58
2022-12-28T14:00:47.089Z,4.10
2022-12-28T14:03:14.268Z,1.83
2022-12-28T14:05:47.411Z,1.40
2022-12-28T14:08:14.765Z,2.20
2022-12-28T14:10:42.001Z,1.88
2022-12-28T14:13:09.426Z,2.45
2022-12-28T14:15:41.342Z,2.03
2022-12-28T14:18:08.957Z,1.30
2022-12-28T14:20:50.723Z,2.25
2022-12-28T14:23:28.459Z,1.77
2022-12-28T14:25:57.698Z,3.08
2022-12-28T14:28:34.451Z,2.70
2022-12-28T14:31:01.710Z,2.42
2022-12-28T14:33:29.595Z,1.65
2022-12-28T14:36:01.280Z,5.82
2022-12-28T14:38:48.541Z,2.85
2022-12-28T14:41:40.244Z,2.35
2022-12-28T14:44:14.276Z,2.58
2022-12-28T14:46:42.746Z,1.75
2022-12-28T14:49:28.444Z,2.78
2022-12-28T14:51:56.125Z,1.48
2022-12-28T14:54:26.626Z,1.92
2022-12-28T14:56:58.004Z,1.90
2022-12-28T14:59:38.440Z,3.10
2022-12-28T15:02:05.834Z,1.85
2022-12-28T15:04:36.882Z,1.27
2022-12-28T15:07:05.250Z,1.55
2022-12-28T15:09:32.622Z,4.45
2022-12-28T15:12:27.041Z,1.58
2022-12-28T15:14:54.256Z,1.30
2022-12-28T15:17:21.508Z,2.70
2022-12-28T15:19:48.692Z,3.85
2022-12-28T15:22:15.887Z,2.00
2022-12-28T15:24:46.414Z,3.40
2022-12-28T15:27:13.593Z,3.33
2022-12-28T15:30:05.132Z,5.18
2022-12-28T15:32:28.593Z,3.50
2022-12-28T15:34:55.786Z,5.93
2022-12-28T15:37:23.056Z,4.90
2022-12-28T15:39:50.296Z,3.28
2022-12-28T15:42:17.524Z,7.18
2022-12-28T15:44:46.185Z,3.25
2022-12-28T15:47:13.427Z,3.90
2022-12-28T15:49:40.648Z,6.82
2022-12-28T15:52:07.878Z,3.00
2022-12-28T15:54:35.152Z,3.03
2022-12-28T15:57:02.377Z,2.83
2022-12-28T15:59:29.706Z,3.50
2022-12-28T16:01:57.113Z,4.63
2022-12-28T16:04:24.475Z,3.75
2022-12-28T16:06:51.714Z,2.70
2022-12-28T16:09:18.927Z,5.03
2022-12-28T16:11:51.513Z,4.68
2022-12-28T16:14:22.291Z,4.63
2022-12-28T16:16:49.725Z,6.00
2022-12-28T16:19:17.301Z,5.65
2022-12-28T16:21:44.788Z,7.97
2022-12-28T16:24:12.104Z,5.13
2022-12-28T16:26:39.329Z,5.22
2022-12-28T16:29:06.537Z,4.88
2022-12-28T16:31:35.345Z,4.40
2022-12-28T16:34:05.115Z,5.22
2022-12-28T16:36:32.450Z,4.40
2022-12-28T16:38:59.681Z,6.78
2022-12-28T16:41:31.366Z,4.65
2022-12-28T16:44:06.573Z,3.72
2022-12-28T16:46:33.759Z,5.68
2022-12-28T16:49:01.825Z,6.15
2022-12-28T16:51:32.013Z,5.35
2022-12-28T16:53:59.232Z,5.53
2022-12-28T16:56:26.449Z,8.20
2022-12-28T16:59:00.498Z,5.55
2022-12-28T17:01:27.843Z,4.90
2022-12-28T17:04:01.830Z,5.18
2022-12-28T17:06:31.111Z,4.38
2022-12-28T17:09:01.541Z,5.68
2022-12-28T17:11:28.746Z,5.13
2022-12-28T17:14:06.853Z,7.07
2022-12-28T17:16:34.199Z,7.78
2022-12-28T17:19:01.524Z,6.05
2022-12-28T17:21:29.281Z,6.88
2022-12-28T17:23:56.535Z,6.13
2022-12-28T17:26:23.973Z,5.95
2022-12-28T17:28:51.152Z,6.75
2022-12-28T17:31:20.123Z,6.95
2022-12-28T17:33:49.040Z,7.28
2022-12-28T17:36:16.265Z,9.55
2022-12-28T17:38:43.511Z,9.77
2022-12-28T17:41:12.358Z,7.82
2022-12-28T17:43:39.638Z,6.13
2022-12-28T17:46:07.040Z,6.13
2022-12-28T17:48:34.373Z,6.95
2022-12-28T17:51:07.904Z,7.85
2022-12-28T17:53:38.712Z,8.20
2022-12-28T17:56:07.919Z,9.73
2022-12-28T17:58:35.204Z,8.18
2022-12-28T18:01:02.511Z,6.68
2022-12-28T18:03:33.653Z,6.20
2022-12-28T18:06:01.678Z,6.38
2022-12-28T18:08:29.540Z,7.63
2022-12-28T18:10:56.864Z,6.93
2022-12-28T18:13:24.058Z,4.72
2022-12-28T18:15:51.272Z,5.72
2022-12-28T18:18:18.633Z,12.43
2022-12-28T18:20:45.946Z,4.13
2022-12-28T18:23:13.200Z,5.97
2022-12-28T18:25:40.404Z,4.15
2022-12-28T18:28:07.598Z,5.15
2022-12-28T18:30:34.824Z,4.57
2022-12-28T18:33:02.078Z,6.45
2022-12-28T18:35:29.703Z,8.73
2022-12-28T18:37:56.905Z,4.53
2022-12-28T18:40:24.243Z,6.65
2022-12-28T18:42:51.430Z,4.82
2022-12-28T18:45:18.655Z,6.40
2022-12-28T18:47:45.878Z,7.63
2022-12-28T18:50:13.186Z,4.18
2022-12-28T18:52:41.134Z,4.35
2022-12-28T18:55:08.906Z,4.38
2022-12-28T18:57:36.132Z,6.10
2022-12-28T19:00:04.077Z,5.15
2022-12-28T19:02:31.372Z,6.65
2022-12-28T19:04:58.691Z,6.50
2022-12-28T19:07:26.122Z,5.53
2022-12-28T19:10:12.986Z,5.93
2022-12-28T19:12:40.940Z,5.72
2022-12-28T19:15:08.811Z,5.75
2022-12-28T19:17:36.043Z,7.15
2022-12-28T19:20:04.441Z,6.93
2022-12-28T19:22:31.851Z,7.40
2022-12-28T19:24:59.394Z,8.23
2022-12-28T19:27:26.643Z,8.30
2022-12-28T19:29:53.866Z,7.38
2022-12-28T19:32:21.165Z,8.13
2022-12-28T19:34:48.354Z,8.20
2022-12-28T19:37:15.555Z,7.10
2022-12-28T19:39:42.880Z,8.75
2022-12-28T19:42:10.063Z,8.20
2022-12-28T19:44:37.324Z,6.57
2022-12-28T19:47:04.996Z,8.10
2022-12-28T19:49:32.200Z,6.85
2022-12-28T19:52:02.113Z,5.75
2022-12-28T19:54:29.415Z,8.45
2022-12-28T19:56:56.596Z,5.90
2022-12-28T19:59:23.907Z,6.22
2022-12-28T20:01:51.245Z,6.80
2022-12-28T20:04:18.499Z,8.48
2022-12-28T20:06:45.763Z,7.43
2022-12-28T20:09:13.503Z,6.45
2022-12-28T20:11:40.932Z,7.13
2022-12-28T20:14:08.348Z,9.10
2022-12-28T20:16:36.049Z,9.50
2022-12-28T20:19:06.453Z,9.73
2022-12-28T20:21:34.040Z,9.50
2022-12-28T20:24:01.631Z,8.90
2022-12-28T20:26:29.060Z,9.68
2022-12-28T20:29:00.123Z,9.32
2022-12-28T20:31:27.450Z,8.23
2022-12-28T20:33:54.963Z,7.43
2022-12-28T20:36:26.577Z,8.45
2022-12-28T20:38:55.672Z,9.63
2022-12-28T20:41:42.893Z,9.27
2022-12-28T20:44:11.909Z,6.53
2022-12-28T20:46:39.287Z,7.45
2022-12-28T20:49:06.663Z,8.95
2022-12-28T20:51:34.407Z,4.65
2022-12-28T20:54:01.623Z,5.15
2022-12-28T20:56:28.821Z,6.53
2022-12-28T20:58:56.233Z,4.55
2022-12-28T21:01:23.543Z,5.22
2022-12-28T21:03:50.814Z,6.30
2022-12-28T21:06:18.034Z,4.72
2022-12-28T21:08:45.252Z,7.15
2022-12-28T21:11:12.549Z,4.97
2022-12-28T21:13:44.223Z,10.98
2022-12-28T21:16:13.180Z,4.95
2022-12-28T21:18:40.930Z,5.97
2022-12-28T21:21:16.402Z,4.85
2022-12-28T21:23:43.913Z,4.40
2022-12-28T21:26:15.918Z,4.47
2022-12-28T21:28:43.283Z,5.65
2022-12-28T21:31:10.587Z,4.50
2022-12-28T21:33:38.030Z,3.65
2022-12-28T21:36:05.637Z,4.25
2022-12-28T21:38:33.194Z,3.53
2022-12-28T21:41:01.957Z,4.43
2022-12-28T21:43:29.731Z,6.32
2022-12-28T21:46:02.598Z,3.35
2022-12-28T21:48:31.812Z,4.57
2022-12-28T21:51:05.178Z,4.55
2022-12-28T21:53:32.655Z,4.40
2022-12-28T21:55:59.898Z,4.50
2022-12-28T21:58:27.084Z,3.33
2022-12-28T22:01:16.252Z,5.32
2022-12-28T22:04:01.972Z,3.13
2022-12-28T22:06:29.210Z,3.53
2022-12-28T22:09:19.271Z,4.45
2022-12-28T22:12:05.033Z,5.38
2022-12-28T22:14:32.236Z,4.43
2022-12-28T22:16:59.465Z,4.07
2022-12-28T22:19:26.844Z,3.75
2022-12-28T22:21:54.028Z,3.15
2022-12-28T22:24:21.215Z,4.18
2022-12-28T22:26:48.423Z,3.78
2022-12-28T22:29:16.462Z,4.20
2022-12-28T22:31:43.709Z,3.42
2022-12-28T22:34:11.323Z,4.05
2022-12-28T22:36:38.561Z,3.67
2022-12-28T22:39:05.815Z,3.20
2022-12-28T22:41:33.022Z,3.70
2022-12-28T22:44:00.203Z,3.42
2022-12-28T22:46:27.473Z,5.30
2022-12-28T22:48:54.701Z,7.47
2022-12-28T22:51:21.958Z,4.65
2022-12-28T22:53:49.901Z,3.85
2022-12-28T22:56:20.615Z,3.42
2022-12-28T22:58:47.967Z,4.70
2022-12-28T23:01:16.876Z,3.28
2022-12-28T23:03:45.544Z,3.58
2022-12-28T23:06:14.889Z,4.05
2022-12-28T23:08:42.203Z,2.70
2022-12-28T23:11:31.272Z,3.45
2022-12-28T23:14:17.403Z,4.07
2022-12-28T23:16:44.803Z,3.75
2022-12-28T23:19:31.158Z,4.00
2022-12-28T23:22:16.995Z,4.60
2022-12-28T23:25:02.927Z,3.53
2022-12-28T23:27:32.981Z,3.55
2022-12-28T23:30:00.180Z,4.53
2022-12-28T23:32:27.382Z,3.53
2022-12-28T23:34:54.564Z,3.13
2022-12-28T23:37:21.751Z,3.65
2022-12-28T23:39:48.955Z,2.72
2022-12-28T23:42:16.136Z,3.95
2022-12-28T23:44:46.014Z,3.13
2022-12-28T23:47:13.296Z,3.75
2022-12-28T23:49:40.553Z,3.03
2022-12-28T23:52:07.776Z,4.57
2022-12-28T23:54:34.968Z,2.35
2022-12-28T23:57:02.175Z,5.20
2022-12-28T23:59:29.388Z,3.78
